createdAt,value
2022-11-03T00:02:08.446Z,1.80
2022-11-03T00:04:36.062Z,1.90
2022-11-03T00:07:03.469Z,1.90
2022-11-03T00:09:32.086Z,2.90
2022-11-03T00:11:59.581Z,2.20
2022-11-03T00:14:27.124Z,1.90
2022-11-03T00:16:55.361Z,2.17
2022-11-03T00:19:22.868Z,2.22
2022-11-03T00:21:50.368Z,2.03
2022-11-03T00:24:17.904Z,1.77
2022-11-03T00:26:45.459Z,2.10
2022-11-03T00:29:15.410Z,2.22
2022-11-03T00:31:44.827Z,2.28
2022-11-03T00:34:12.781Z,2.17
2022-11-03T00:36:45.124Z,1.92
2022-11-03T00:39:13.444Z,2.13
2022-11-03T00:41:41.321Z,2.22
2022-11-03T00:44:10.883Z,2.38
2022-11-03T00:46:38.487Z,1.90
2022-11-03T00:49:06.159Z,1.98
2022-11-03T00:51:35.201Z,2.58
2022-11-03T00:54:04.855Z,2.92
2022-11-03T00:56:40.333Z,2.28
2022-11-03T00:59:09.910Z,2.47
2022-11-03T01:01:46.685Z,2.30
2022-11-03T01:04:35.304Z,1.90
2022-11-03T01:07:04.580Z,1.70
2022-11-03T01:09:43.616Z,1.98
2022-11-03T01:12:16.822Z,2.25
2022-11-03T01:14:49.444Z,2.17
2022-11-03T01:19:52.418Z,1.77
2022-11-03T01:22:21.213Z,2.28
2022-11-03T01:24:49.045Z,2.00
2022-11-03T01:27:20.409Z,1.80
2022-11-03T01:29:47.937Z,2.00
2022-11-03T01:32:15.407Z,2.00
2022-11-03T01:34:42.949Z,2.10
2022-11-03T01:37:10.503Z,2.08
2022-11-03T01:39:37.962Z,2.38
2022-11-03T01:42:05.544Z,2.33
2022-11-03T01:44:40.245Z,2.03
2022-11-03T01:47:30.939Z,2.30
2022-11-03T01:50:05.867Z,2.30
2022-11-03T01:53:08.748Z,2.20
2022-11-03T01:55:40.181Z,1.70
2022-11-03T01:58:22.174Z,1.90
2022-11-03T02:00:54.948Z,2.00
2022-11-03T02:03:23.940Z,2.80
2022-11-03T02:05:52.958Z,2.47
2022-11-03T02:08:31.204Z,2.28
2022-11-03T02:10:58.900Z,2.00
2022-11-03T02:13:27.778Z,2.47
2022-11-03T02:15:58.858Z,2.10
2022-11-03T02:18:33.347Z,1.90
2022-11-03T02:21:36.047Z,1.73
2022-11-03T02:24:48.637Z,1.92
2022-11-03T02:27:21.775Z,2.22
2022-11-03T02:29:49.837Z,2.17
2022-11-03T02:32:28.758Z,2.45
2022-11-03T02:35:33.705Z,2.10
2022-11-03T02:38:05.289Z,2.17
2022-11-03T02:40:41.289Z,2.00
2022-11-03T02:43:10.481Z,2.10
2022-11-03T02:45:39.187Z,2.38
2022-11-03T02:48:08.259Z,2.53
2022-11-03T02:50:35.782Z,2.40
2022-11-03T02:53:03.744Z,2.33
2022-11-03T02:55:57.165Z,1.95
2022-11-03T02:58:47.940Z,2.00
2022-11-03T03:01:37.484Z,2.05
2022-11-03T03:04:09.818Z,2.17
2022-11-03T03:06:57.756Z,2.28
2022-11-03T03:09:54.864Z,1.90
2022-11-03T03:12:23.306Z,2.17
2022-11-03T03:14:53.824Z,2.17
2022-11-03T03:17:32.238Z,2.58
2022-11-03T03:20:14.904Z,1.88
2022-11-03T03:22:53.464Z,2.03
2022-11-03T03:25:35.268Z,2.10
2022-11-03T03:28:13.815Z,1.80
2022-11-03T03:30:43.603Z,2.47
2022-11-03T03:33:12.812Z,2.15
2022-11-03T03:35:44.644Z,2.20
2022-11-03T03:38:20.061Z,2.42
2022-11-03T03:40:51.660Z,2.35
2022-11-03T03:43:22.232Z,2.30
2022-11-03T03:45:53.348Z,2.30
2022-11-03T03:48:21.476Z,2.03
2022-11-03T03:50:50.393Z,2.35
2022-11-03T03:53:19.657Z,2.05
2022-11-03T03:55:52.249Z,2.47
2022-11-03T04:00:47.472Z,2.30
2022-11-03T04:03:20.736Z,2.55
2022-11-03T04:05:48.762Z,2.95
2022-11-03T04:08:17.485Z,1.85
2022-11-03T04:11:03.991Z,2.08
2022-11-03T04:13:51.210Z,2.08
2022-11-03T04:16:36.875Z,2.22
2022-11-03T04:19:22.658Z,2.53
2022-11-03T04:22:08.635Z,2.45
2022-11-03T04:24:36.175Z,2.30
2022-11-03T04:27:30.825Z,2.70
2022-11-03T04:30:10.208Z,2.60
2022-11-03T04:32:38.262Z,2.20
2022-11-03T04:35:32.304Z,2.30
2022-11-03T04:38:09.310Z,2.08
2022-11-03T04:40:45.199Z,2.10
2022-11-03T04:43:16.561Z,2.05
2022-11-03T04:45:45.789Z,1.88
2022-11-03T04:48:15.512Z,1.80
2022-11-03T04:50:46.713Z,2.42
2022-11-03T04:53:19.582Z,2.40
2022-11-03T04:58:27.478Z,2.13
2022-11-03T05:00:57.747Z,2.47
2022-11-03T05:03:32.603Z,2.10
2022-11-03T05:06:10.275Z,2.42
2022-11-03T05:08:37.841Z,2.00
2022-11-03T05:11:29.469Z,1.83
2022-11-03T05:14:02.047Z,2.00
2022-11-03T05:18:57.577Z,2.03
2022-11-03T05:21:28.611Z,2.05
2022-11-03T05:24:03.861Z,1.98
2022-11-03T05:26:34.533Z,1.80
2022-11-03T05:29:19.255Z,2.00
2022-11-03T05:31:48.814Z,1.90
2022-11-03T05:34:16.434Z,2.22
2022-11-03T05:36:43.909Z,2.17
2022-11-03T05:39:38.232Z,2.35
2022-11-03T05:42:36.377Z,2.05
2022-11-03T05:45:26.848Z,2.15
2022-11-03T05:47:56.705Z,2.05
2022-11-03T05:50:29.691Z,1.88
2022-11-03T05:53:20.389Z,2.13
2022-11-03T05:55:47.893Z,2.25
2022-11-03T05:58:32.595Z,2.50
2022-11-03T06:01:03.215Z,2.33
2022-11-03T06:03:34.859Z,2.28
2022-11-03T06:06:02.950Z,2.40
2022-11-03T06:08:39.034Z,2.88
2022-11-03T06:11:16.516Z,2.33
2022-11-03T06:13:44.149Z,2.47
2022-11-03T06:16:30.249Z,2.05
2022-11-03T06:18:57.812Z,2.38
2022-11-03T06:21:27.092Z,2.10
2022-11-03T06:23:55.432Z,2.42
2022-11-03T06:26:28.170Z,2.00
2022-11-03T06:28:56.165Z,2.42
2022-11-03T06:31:30.600Z,1.80
2022-11-03T06:33:59.239Z,2.70
2022-11-03T06:36:36.538Z,2.08
2022-11-03T06:39:20.032Z,2.10
2022-11-03T06:41:47.560Z,1.90
2022-11-03T06:44:25.728Z,1.92
2022-11-03T06:47:15.433Z,1.90
2022-11-03T06:49:43.902Z,2.25
2022-11-03T06:52:31.587Z,2.13
2022-11-03T06:55:12.100Z,2.15
2022-11-03T06:57:46.263Z,1.77
2022-11-03T07:00:41.152Z,2.03
2022-11-03T07:03:28.135Z,2.22
2022-11-03T07:06:13.984Z,2.20
2022-11-03T07:08:47.465Z,1.92
2022-11-03T07:11:14.916Z,2.03
2022-11-03T07:13:43.173Z,2.00
2022-11-03T07:16:28.218Z,2.20
2022-11-03T07:18:57.286Z,2.33
2022-11-03T07:21:44.435Z,2.60
2022-11-03T07:24:18.323Z,1.67
2022-11-03T07:26:45.794Z,2.30
2022-11-03T07:29:25.515Z,1.83
2022-11-03T07:31:55.345Z,1.90
2022-11-03T07:34:25.967Z,1.90
2022-11-03T07:36:56.016Z,2.20
2022-11-03T07:39:24.266Z,2.03
2022-11-03T07:41:52.444Z,1.70
2022-11-03T07:44:21.508Z,1.77
2022-11-03T07:46:50.936Z,2.85
2022-11-03T07:49:27.514Z,2.42
2022-11-03T07:51:59.821Z,2.50
2022-11-03T07:54:33.417Z,2.15
2022-11-03T07:57:06.295Z,1.85
2022-11-03T07:59:38.962Z,2.20
2022-11-03T08:02:33.787Z,2.30
2022-11-03T08:05:02.078Z,1.67
2022-11-03T08:07:29.891Z,2.05
2022-11-03T08:09:57.431Z,2.20
2022-11-03T08:12:25.033Z,2.05
2022-11-03T08:14:52.625Z,2.03
2022-11-03T08:17:20.177Z,2.88
2022-11-03T08:19:47.602Z,2.20
2022-11-03T08:22:15.107Z,2.30
2022-11-03T08:24:42.652Z,2.20
2022-11-03T08:27:10.237Z,1.95
2022-11-03T08:29:37.707Z,1.95
2022-11-03T08:32:05.479Z,1.92
2022-11-03T08:34:33.009Z,2.10
2022-11-03T08:37:00.503Z,2.10
2022-11-03T08:39:28.066Z,1.80
2022-11-03T08:41:55.536Z,1.60
2022-11-03T08:44:23.010Z,2.15
2022-11-03T08:46:50.497Z,1.85
2022-11-03T08:49:17.917Z,1.65
2022-11-03T08:51:45.471Z,1.48
2022-11-03T08:54:12.961Z,1.92
2022-11-03T08:56:40.461Z,2.08
2022-11-03T08:59:07.917Z,1.95
2022-11-03T09:01:35.480Z,2.30
2022-11-03T09:04:03.923Z,2.63
2022-11-03T09:06:31.507Z,2.15
2022-11-03T09:11:46.575Z,2.17
2022-11-03T09:14:14.473Z,2.10
2022-11-03T09:16:41.902Z,2.00
2022-11-03T09:19:09.503Z,2.03
2022-11-03T09:21:37.006Z,2.33
2022-11-03T09:24:04.895Z,2.53
2022-11-03T09:26:32.368Z,2.35
2022-11-03T09:28:59.842Z,2.10
2022-11-03T09:31:28.874Z,2.42
2022-11-03T09:33:56.445Z,2.45
2022-11-03T09:36:23.891Z,2.70
2022-11-03T09:38:51.458Z,2.10
2022-11-03T09:41:26.686Z,2.25
2022-11-03T09:44:03.344Z,2.47
2022-11-03T09:46:31.426Z,2.20
2022-11-03T09:48:59.606Z,2.05
2022-11-03T09:51:28.892Z,2.20
2022-11-03T09:53:59.316Z,2.20
2022-11-03T09:56:27.367Z,2.13
2022-11-03T09:58:55.033Z,2.55
2022-11-03T10:01:23.679Z,2.33
2022-11-03T10:03:51.935Z,2.08
2022-11-03T10:06:21.504Z,2.28
2022-11-03T10:08:49.784Z,1.92
2022-11-03T10:11:17.688Z,2.15
2022-11-03T10:13:53.200Z,1.85
2022-11-03T10:16:23.879Z,1.83
2022-11-03T10:18:52.444Z,2.20
2022-11-03T10:21:29.892Z,2.10
2022-11-03T10:23:57.543Z,3.22
2022-11-03T10:26:25.061Z,2.50
2022-11-03T10:29:01.272Z,1.63
2022-11-03T10:31:42.132Z,2.20
2022-11-03T10:34:34.327Z,2.40
2022-11-03T10:37:12.761Z,2.03
2022-11-03T10:39:40.375Z,2.10
2022-11-03T10:42:24.567Z,2.17
2022-11-03T10:45:09.340Z,2.35
2022-11-03T10:47:36.813Z,2.25
2022-11-03T10:50:27.983Z,2.17
2022-11-03T10:52:55.459Z,2.38
2022-11-03T10:55:25.673Z,2.05
2022-11-03T10:57:55.931Z,2.80
2022-11-03T11:00:24.639Z,2.00
2022-11-03T11:03:00.151Z,2.40
2022-11-03T11:05:28.061Z,1.63
2022-11-03T11:07:56.866Z,2.60
2022-11-03T11:10:27.019Z,1.73
2022-11-03T11:13:18.033Z,1.70
2022-11-03T11:15:49.452Z,1.90
2022-11-03T11:18:42.909Z,1.73
2022-11-03T11:21:16.205Z,1.92
2022-11-03T11:23:45.578Z,1.90
2022-11-03T11:26:17.448Z,2.40
2022-11-03T11:28:47.212Z,2.30
2022-11-03T11:31:39.157Z,2.13
2022-11-03T11:34:17.558Z,1.93
2022-11-03T11:36:47.654Z,1.80
2022-11-03T11:39:21.093Z,2.00
2022-11-03T11:42:20.432Z,2.28
2022-11-03T11:45:00.009Z,2.10
2022-11-03T11:47:45.658Z,2.03
2022-11-03T11:50:19.896Z,1.80
2022-11-03T11:53:11.462Z,2.22
2022-11-03T11:55:39.217Z,2.25
2022-11-03T11:58:15.941Z,2.35
2022-11-03T12:00:55.537Z,1.83
2022-11-03T12:03:28.418Z,1.73
2022-11-03T12:05:56.092Z,1.75
2022-11-03T12:08:29.946Z,1.70
2022-11-03T12:11:05.640Z,1.88
2022-11-03T12:13:52.708Z,1.77
2022-11-03T12:16:32.531Z,1.77
2022-11-03T12:19:37.583Z,1.65
2022-11-03T12:22:09.897Z,1.60
2022-11-03T12:24:45.988Z,1.58
2022-11-03T12:27:27.255Z,1.90
2022-11-03T12:30:02.769Z,1.58
2022-11-03T12:32:33.736Z,1.60
2022-11-03T12:35:08.578Z,2.15
2022-11-03T12:37:36.477Z,1.38
2022-11-03T12:40:04.640Z,1.63
2022-11-03T12:42:32.113Z,1.98
2022-11-03T12:44:59.823Z,1.90
2022-11-03T12:47:27.346Z,2.05
2022-11-03T12:49:54.841Z,1.90
2022-11-03T12:52:22.362Z,1.85
2022-11-03T12:54:49.885Z,2.10
2022-11-03T12:57:17.341Z,1.90
2022-11-03T12:59:44.813Z,2.25
2022-11-03T13:02:12.352Z,2.05
2022-11-03T13:04:39.992Z,2.33
2022-11-03T13:07:07.369Z,2.25
2022-11-03T13:09:36.174Z,1.55
2022-11-03T13:12:22.116Z,1.80
2022-11-03T13:14:49.696Z,2.30
2022-11-03T13:17:17.185Z,1.95
2022-11-03T13:19:44.728Z,2.08
2022-11-03T13:22:12.123Z,2.10
2022-11-03T13:24:39.719Z,2.55
2022-11-03T13:27:07.288Z,1.90
2022-11-03T13:29:35.935Z,1.95
2022-11-03T13:32:08.525Z,1.70
2022-11-03T13:37:04.925Z,1.90
2022-11-03T13:39:32.387Z,1.65
2022-11-03T13:41:59.931Z,1.83
2022-11-03T13:44:27.490Z,1.58
2022-11-03T13:46:55.038Z,1.55
2022-11-03T13:49:59.197Z,1.42
2022-11-03T13:52:10.451Z,1.98
2022-11-03T14:00:14.499Z,2.10
2022-11-03T14:05:29.686Z,1.60
2022-11-03T14:07:57.303Z,2.08
2022-11-03T14:10:24.711Z,1.73
2022-11-03T14:12:52.193Z,1.80
2022-11-03T14:15:19.766Z,1.67
2022-11-03T14:17:47.252Z,1.45
2022-11-03T14:20:14.848Z,1.98
2022-11-03T14:22:42.508Z,1.60
2022-11-03T14:25:10.295Z,1.50
2022-11-03T14:27:37.862Z,2.03
2022-11-03T14:30:06.306Z,1.90
2022-11-03T14:32:33.889Z,2.17
2022-11-03T14:35:01.382Z,1.80
2022-11-03T14:37:28.996Z,2.28
2022-11-03T14:39:56.557Z,1.85
2022-11-03T14:42:24.473Z,1.80
2022-11-03T14:47:23.422Z,2.40
2022-11-03T14:49:50.837Z,1.58
2022-11-03T14:52:18.398Z,1.63
2022-11-03T14:54:46.076Z,1.85
2022-11-03T14:57:13.515Z,1.83
2022-11-03T14:59:41.178Z,1.73
2022-11-03T15:02:08.717Z,1.60
2022-11-03T15:04:36.384Z,1.88
2022-11-03T15:07:03.954Z,1.95
2022-11-03T15:09:31.450Z,1.98
2022-11-03T15:11:59.096Z,1.90
2022-11-03T15:14:26.606Z,2.28
2022-11-03T15:16:54.019Z,1.63
2022-11-03T15:19:21.550Z,2.00
2022-11-03T15:21:48.932Z,1.90
2022-11-03T15:27:03.863Z,1.63
2022-11-03T15:29:31.351Z,2.00
2022-11-03T15:31:58.887Z,1.45
2022-11-03T15:34:26.519Z,1.98
2022-11-03T15:36:53.906Z,1.55
2022-11-03T15:39:21.354Z,1.77
2022-11-03T15:41:48.837Z,1.77
2022-11-03T15:44:16.367Z,1.95
2022-11-03T15:46:43.894Z,1.63
2022-11-03T15:49:11.394Z,1.70
2022-11-03T15:51:38.894Z,1.98
2022-11-03T15:54:06.398Z,1.70
2022-11-03T15:56:34.208Z,1.58
2022-11-03T15:59:01.697Z,1.92
2022-11-03T16:01:29.698Z,1.77
2022-11-03T16:03:57.438Z,2.03
2022-11-03T16:06:40.567Z,1.60
2022-11-03T16:09:12.389Z,1.60
2022-11-03T16:11:39.780Z,1.60
2022-11-03T16:14:07.408Z,1.70
2022-11-03T16:16:34.885Z,1.90
2022-11-03T16:19:02.444Z,1.80
2022-11-03T16:21:30.114Z,2.10
2022-11-03T16:23:57.613Z,1.90
2022-11-03T16:26:25.139Z,1.98
2022-11-03T16:28:52.612Z,2.00
2022-11-03T16:31:20.139Z,2.13
2022-11-03T16:33:47.724Z,1.90
2022-11-03T16:36:15.269Z,1.85
2022-11-03T16:38:42.801Z,1.90
2022-11-03T16:41:10.437Z,2.20
2022-11-03T16:43:38.231Z,2.15
2022-11-03T16:46:05.862Z,1.90
2022-11-03T16:48:33.315Z,1.88
2022-11-03T16:51:00.820Z,2.00
2022-11-03T16:53:28.666Z,2.30
2022-11-03T16:55:56.467Z,2.00
2022-11-03T16:58:24.023Z,2.00
2022-11-03T17:00:51.644Z,2.10
2022-11-03T17:03:19.476Z,2.10
2022-11-03T17:05:46.931Z,1.95
2022-11-03T17:08:39.050Z,2.05
2022-11-03T17:11:02.104Z,2.00
2022-11-03T17:13:30.143Z,2.35
2022-11-03T17:15:57.664Z,2.60
2022-11-03T17:18:25.107Z,1.95
2022-11-03T17:20:52.684Z,2.42
2022-11-03T17:23:20.330Z,2.47
2022-11-03T17:25:48.049Z,2.25
2022-11-03T17:28:19.041Z,2.78
2022-11-03T17:30:46.613Z,2.13
2022-11-03T17:33:18.021Z,2.30
2022-11-03T17:35:46.589Z,2.40
2022-11-03T17:38:17.343Z,2.42
2022-11-03T17:40:47.704Z,2.10
2022-11-03T17:43:20.665Z,2.28
2022-11-03T17:45:48.428Z,2.40
2022-11-03T17:48:16.075Z,2.08
2022-11-03T17:50:47.407Z,2.10
2022-11-03T17:53:31.491Z,2.10
2022-11-03T17:56:28.349Z,2.53
2022-11-03T17:58:47.981Z,2.03
2022-11-03T18:01:23.359Z,1.92
2022-11-03T18:03:52.357Z,2.08
2022-11-03T18:06:21.699Z,2.03
2022-11-03T18:08:49.634Z,1.98
2022-11-03T18:11:45.275Z,2.35
2022-11-03T18:14:13.324Z,1.90
2022-11-03T18:16:41.071Z,2.60
2022-11-03T18:19:16.244Z,1.80
2022-11-03T18:21:44.466Z,1.90
2022-11-03T18:24:16.831Z,1.95
2022-11-03T18:26:44.561Z,1.75
2022-11-03T18:29:12.273Z,1.92
2022-11-03T18:31:50.818Z,1.92
2022-11-03T18:34:26.706Z,2.22
2022-11-03T18:36:56.193Z,1.80
2022-11-03T18:39:26.770Z,2.03
2022-11-03T18:41:55.028Z,1.90
2022-11-03T18:44:24.965Z,1.73
2022-11-03T18:46:54.813Z,2.10
2022-11-03T18:49:23.884Z,2.08
2022-11-03T18:52:03.893Z,2.20
2022-11-03T18:54:34.526Z,2.15
2022-11-03T18:57:02.836Z,2.03
2022-11-03T18:59:37.808Z,1.75
2022-11-03T19:02:23.931Z,1.70
2022-11-03T19:04:51.588Z,1.50
2022-11-03T19:07:33.325Z,1.63
2022-11-03T19:10:03.999Z,1.73
2022-11-03T19:12:39.026Z,1.40
2022-11-03T19:15:08.135Z,2.00
2022-11-03T19:17:36.577Z,1.80
2022-11-03T19:20:14.022Z,1.73
2022-11-03T19:22:41.582Z,1.83
2022-11-03T19:25:09.644Z,1.58
2022-11-03T19:27:40.879Z,1.50
2022-11-03T19:30:20.082Z,1.20
2022-11-03T19:32:53.431Z,1.60
2022-11-03T19:35:23.832Z,1.67
2022-11-03T19:38:04.815Z,1.45
2022-11-03T19:40:33.165Z,2.53
2022-11-03T19:43:00.636Z,1.73
2022-11-03T19:45:29.302Z,1.80
2022-11-03T19:48:23.011Z,2.33
2022-11-03T19:50:49.917Z,1.77
2022-11-03T19:53:30.309Z,1.65
2022-11-03T19:55:58.477Z,1.98
2022-11-03T19:58:29.333Z,1.70
2022-11-03T20:00:57.017Z,2.00
2022-11-03T20:03:25.385Z,2.25
2022-11-03T20:05:56.835Z,2.20
2022-11-03T20:08:26.667Z,2.33
2022-11-03T20:10:54.406Z,1.92
2022-11-03T20:13:24.801Z,2.17
2022-11-03T20:15:59.057Z,2.33
2022-11-03T20:18:28.674Z,2.10
2022-11-03T20:20:56.847Z,2.08
2022-11-03T20:23:29.058Z,1.90
2022-11-03T20:25:57.193Z,2.35
2022-11-03T20:28:28.689Z,2.10
2022-11-03T20:30:57.701Z,2.38
2022-11-03T20:33:26.030Z,2.25
2022-11-03T20:35:55.626Z,2.45
2022-11-03T20:38:25.336Z,2.40
2022-11-03T20:40:58.917Z,2.60
2022-11-03T20:43:43.789Z,2.33
2022-11-03T20:46:23.181Z,2.65
2022-11-03T20:48:51.156Z,2.20
2022-11-03T20:51:20.757Z,2.05
2022-11-03T20:53:48.612Z,2.47
2022-11-03T20:56:19.789Z,2.58
2022-11-03T20:58:47.974Z,2.70
2022-11-03T21:01:25.003Z,2.33
2022-11-03T21:03:59.210Z,2.28
2022-11-03T21:06:32.252Z,2.25
2022-11-03T21:09:00.392Z,2.40
2022-11-03T21:11:33.781Z,2.22
2022-11-03T21:14:08.842Z,2.60
2022-11-03T21:16:55.129Z,2.50
2022-11-03T21:19:43.585Z,2.78
2022-11-03T21:25:17.553Z,2.95
2022-11-03T21:27:45.524Z,3.53
2022-11-03T21:30:14.957Z,2.95
2022-11-03T21:32:43.125Z,3.83
2022-11-03T21:35:16.008Z,3.20
2022-11-03T21:37:43.485Z,3.65
2022-11-03T21:40:11.514Z,3.47
2022-11-03T21:42:57.982Z,3.55
2022-11-03T21:45:25.724Z,3.60
2022-11-03T21:48:13.860Z,3.60
2022-11-03T21:50:43.233Z,3.58
2022-11-03T21:53:16.947Z,4.00
2022-11-03T21:55:49.257Z,3.70
2022-11-03T21:58:16.981Z,4.28
2022-11-03T22:00:47.432Z,4.22
2022-11-03T22:03:18.117Z,3.72
2022-11-03T22:05:48.757Z,3.50
2022-11-03T22:08:16.382Z,4.35
2022-11-03T22:10:46.262Z,4.25
2022-11-03T22:13:13.883Z,4.60
2022-11-03T22:16:04.365Z,4.63
2022-11-03T22:18:31.920Z,4.40
2022-11-03T22:21:18.113Z,4.55
2022-11-03T22:24:04.239Z,4.22
2022-11-03T22:26:50.126Z,4.22
2022-11-03T22:29:37.896Z,4.30
2022-11-03T22:32:15.419Z,4.43
2022-11-03T22:35:01.623Z,4.20
2022-11-03T22:40:14.492Z,4.70
2022-11-03T22:43:00.302Z,4.40
2022-11-03T22:45:46.147Z,4.18
2022-11-03T22:48:13.802Z,4.72
2022-11-03T22:50:41.282Z,5.45
2022-11-03T22:53:27.737Z,5.20
2022-11-03T22:55:55.255Z,5.35
2022-11-03T22:58:25.306Z,5.75
2022-11-03T23:03:22.954Z,4.90
2022-11-03T23:05:50.412Z,5.45
2022-11-03T23:08:17.952Z,5.35
2022-11-03T23:10:45.408Z,5.10
2022-11-03T23:13:13.010Z,5.03
2022-11-03T23:15:43.904Z,5.05
2022-11-03T23:18:31.497Z,5.07
2022-11-03T23:21:07.851Z,4.93
2022-11-03T23:23:58.341Z,5.75
2022-11-03T23:26:27.179Z,5.18
2022-11-03T23:28:55.186Z,5.18
2022-11-03T23:31:22.751Z,5.05
2022-11-03T23:33:50.428Z,5.15
2022-11-03T23:36:18.577Z,4.95
2022-11-03T23:38:46.426Z,5.25
2022-11-03T23:41:16.650Z,5.32
2022-11-03T23:43:45.240Z,5.00
2022-11-03T23:46:33.100Z,5.38
2022-11-03T23:49:00.596Z,5.45
2022-11-03T23:51:30.374Z,5.32
2022-11-03T23:53:59.490Z,5.25
2022-11-03T23:56:48.007Z,5.10
2022-11-03T23:59:17.357Z,4.68
